Time;durP1;ratioP1;P1;durP2;ratioP2;P2;SDS_P1;SDS_P2;PMS_P1;PMS_P2;Temp;Humidity;BMP_temperature;BMP_pressure;BME280_temperature;BME280_humidity;BME280_pressure;Samples;Min_cycle;Max_cycle;Signal;HPM_P1;HPM_P2
2023/08/04 00:00:55;;;;;;;12.90;7.55;;;;;;;24.45;68.44;100034.58;123456;1102;104252;-81
2023/08/04 00:03:33;;;;;;;13.47;7.60;;;;;;;24.44;68.68;100035.52;123735;1102;104248;-82
2023/08/04 00:06:09;;;;;;;14.10;7.67;;;;;;;24.44;69.12;100035.52;123704;1102;104299;-81
2023/08/04 00:08:40;;;;;;;12.87;7.23;;;;;;;24.41;68.79;100040.02;123490;1102;104261;-83
2023/08/04 00:11:12;;;;;;;14.13;7.33;;;;;;;24.39;69.16;100035.65;123538;1102;104182;-82
2023/08/04 00:13:43;;;;;;;13.50;7.10;;;;;;;24.37;69.21;100046.42;123682;1102;104395;-81
2023/08/04 00:16:14;;;;;;;15.03;7.63;;;;;;;24.35;69.56;100048.24;123388;1102;104354;-81
2023/08/04 00:18:45;;;;;;;12.07;7.07;;;;;;;24.33;69.46;100052.78;123487;1102;104332;-81
2023/08/04 00:21:16;;;;;;;11.50;7.70;;;;;;;24.30;69.88;100047.50;123503;1102;104261;-81
2023/08/04 00:23:47;;;;;;;11.80;7.13;;;;;;;24.27;69.98;100047.59;123622;1102;104398;-83
2023/08/04 00:26:18;;;;;;;12.30;7.60;;;;;;;24.25;70.26;100054.80;123641;1102;104415;-82
2023/08/04 00:28:49;;;;;;;15.90;8.03;;;;;;;24.22;70.65;100055.76;123448;1102;104229;-81
2023/08/04 00:31:20;;;;;;;13.27;7.67;;;;;;;24.20;70.28;100051.38;123629;1102;104204;-82
2023/08/04 00:33:51;;;;;;;13.77;7.60;;;;;;;24.20;71.11;100054.06;123357;1102;104258;-82
2023/08/04 00:36:22;;;;;;;12.63;7.53;;;;;;;24.18;70.86;100053.20;123353;1102;104281;-79
2023/08/04 00:38:53;;;;;;;14.30;7.80;;;;;;;24.15;71.32;100054.19;123376;1102;104460;-82
2023/08/04 00:41:25;;;;;;;14.43;7.40;;;;;;;24.15;71.35;100050.61;123413;1102;104230;-81
2023/08/04 00:43:56;;;;;;;12.33;7.37;;;;;;;24.11;71.34;100041.78;123711;1102;104258;-81
2023/08/04 00:46:27;;;;;;;13.70;7.60;;;;;;;24.09;71.39;100049.00;123847;1102;104299;-81
2023/08/04 00:49:00;;;;;;;11.87;7.07;;;;;;;24.08;71.97;100046.36;123513;1102;104261;-81
2023/08/04 00:51:32;;;;;;;14.67;7.83;;;;;;;24.06;71.62;100041.03;123546;1102;104264;-81
2023/08/04 00:54:07;;;;;;;15.07;7.33;;;;;;;24.06;72.01;100046.40;123888;1102;104258;-81
2023/08/04 00:56:39;;;;;;;16.50;7.43;;;;;;;24.06;71.81;100043.72;123472;1102;104287;-81
2023/08/04 00:59:11;;;;;;;11.87;6.97;;;;;;;24.05;71.88;100052.67;123558;1102;104252;-82
2023/08/04 01:01:43;;;;;;;15.00;7.23;;;;;;;24.04;72.00;100051.80;124092;1102;104265;-81
2023/08/04 01:04:15;;;;;;;13.35;7.35;;;;;;;24.03;72.10;100047.35;123860;1102;104318;-81
2023/08/04 01:06:56;;;;;;;9.85;6.80;;;;;;;24.03;72.23;100049.16;123657;1102;104251;-81
2023/08/04 01:09:35;;;;;;;13.67;6.83;;;;;;;24.01;72.46;100054.56;123845;1102;104351;-81
2023/08/04 01:12:12;;;;;;;14.67;7.47;;;;;;;24.02;72.35;100052.75;123740;1102;104277;-82
2023/08/04 01:14:45;;;;;;;11.43;7.23;;;;;;;24.02;72.01;100052.75;123411;1102;104325;-82
2023/08/04 01:17:27;;;;;;;11.20;7.10;;;;;;;23.99;72.67;100052.83;123914;1102;104834;-81
2023/08/04 01:19:59;;;;;;;13.03;7.20;;;;;;;23.97;72.75;100050.19;123811;1102;104255;-81
2023/08/04 01:22:30;;;;;;;13.30;7.60;;;;;;;23.95;72.84;100049.37;123563;1102;104255;-82
2023/08/04 01:25:02;;;;;;;14.57;8.07;;;;;;;23.94;72.93;100047.59;123751;1102;104175;-83
2023/08/04 01:27:38;;;;;;;17.83;8.50;;;;;;;23.92;73.17;100049.45;123457;1102;104236;-81
2023/08/04 01:30:14;;;;;;;17.97;9.53;;;;;;;23.89;73.12;100049.53;123812;1102;104374;-80
2023/08/04 01:32:46;;;;;;;18.40;9.83;;;;;;;23.86;73.45;100054.97;123814;1102;104251;-80
2023/08/04 01:35:18;;;;;;;16.57;9.40;;;;;;;23.82;73.35;100056.79;123707;1102;104294;-81
2023/08/04 01:37:50;;;;;;;16.17;9.03;;;;;;;23.79;73.83;100059.55;123951;1102;104254;-80
2023/08/04 01:40:21;;;;;;;14.30;8.67;;;;;;;23.77;73.82;100061.39;123907;1102;104313;-80
2023/08/04 01:42:52;;;;;;;15.13;8.03;;;;;;;23.76;74.22;100064.11;123791;1102;104629;-80
2023/08/04 01:45:24;;;;;;;17.37;8.97;;;;;;;23.75;74.20;100071.28;123804;1102;104168;-80
2023/08/04 01:47:55;;;;;;;15.47;8.93;;;;;;;23.74;74.15;100074.00;123784;1102;104322;-81
2023/08/04 01:50:26;;;;;;;15.57;8.50;;;;;;;23.72;74.26;100070.45;123829;1102;104249;-82
2023/08/04 01:52:58;;;;;;;16.20;8.70;;;;;;;23.70;74.42;100070.53;123674;1102;104309;-81
2023/08/04 01:55:29;;;;;;;15.17;8.20;;;;;;;23.69;74.58;100072.30;123655;1102;104466;-81
2023/08/04 01:58:00;;;;;;;14.90;8.30;;;;;;;23.68;74.48;100075.92;123413;1102;104309;-83
2023/08/04 02:00:31;;;;;;;13.47;7.87;;;;;;;23.66;74.56;100074.19;123717;1102;104268;-81
2023/08/04 02:03:02;;;;;;;15.27;8.20;;;;;;;23.65;74.92;100070.64;123427;1102;104277;-81
2023/08/04 02:05:33;;;;;;;15.20;7.67;;;;;;;23.62;75.20;100076.08;123383;1102;104238;-81
2023/08/04 02:08:05;;;;;;;14.43;8.00;;;;;;;23.62;75.38;100069.81;123587;1102;104334;-81
2023/08/04 02:10:37;;;;;;;14.00;7.60;;;;;;;23.59;75.41;100069.89;123704;1101;104380;-83
2023/08/04 02:13:08;;;;;;;16.57;8.23;;;;;;;23.56;74.74;100078.91;123737;1102;104275;-80
2023/08/04 02:15:39;;;;;;;14.73;7.70;;;;;;;23.53;75.49;100076.30;123738;1102;104226;-79
2023/08/04 02:18:10;;;;;;;17.15;8.50;;;;;;;23.51;75.41;100084.37;123812;1102;104310;-80
2023/08/04 02:20:41;;;;;;;13.87;8.07;;;;;;;23.48;76.01;100080.86;123762;1102;104428;-81
2023/08/04 02:23:12;;;;;;;14.97;8.30;;;;;;;23.46;75.62;100074.67;123809;1102;104252;-81
2023/08/04 02:25:43;;;;;;;13.93;8.23;;;;;;;23.43;75.77;100080.11;123803;1101;104245;-81
2023/08/04 02:28:14;;;;;;;13.40;8.37;;;;;;;23.41;76.19;100089.98;123614;1102;104251;-82
2023/08/04 02:30:45;;;;;;;13.60;7.93;;;;;;;23.36;76.30;100084.73;123589;1102;104302;-83
2023/08/04 02:33:16;;;;;;;12.13;8.07;;;;;;;23.32;76.35;100085.71;124819;1102;104348;-82
2023/08/04 02:35:47;;;;;;;13.03;8.03;;;;;;;23.29;76.22;100088.46;125892;1102;101814;-81
2023/08/04 02:38:18;;;;;;;13.57;7.50;;;;;;;23.29;76.82;100081.30;125505;1102;104287;-81
2023/08/04 02:40:49;;;;;;;16.13;8.13;;;;;;;23.29;76.78;100086.66;125526;1102;101762;-81
2023/08/04 02:43:20;;;;;;;12.97;8.03;;;;;;;23.30;77.09;100085.75;124269;1102;104284;-81
2023/08/04 02:45:52;;;;;;;14.33;8.20;;;;;;;23.30;76.59;100088.42;123788;1102;104364;-80
2023/08/04 02:48:23;;;;;;;14.63;7.60;;;;;;;23.30;77.23;100085.75;123730;1102;104392;-81
2023/08/04 02:51:04;;;;;;;12.57;8.00;;;;;;;23.28;77.42;100087.59;123732;1102;104278;-82
2023/08/04 02:53:36;;;;;;;12.17;7.50;;;;;;;23.26;77.29;100086.72;123812;1102;104277;-80
2023/08/04 02:56:15;;;;;;;14.33;7.90;;;;;;;23.23;77.77;100089.47;123435;1102;104277;-81
2023/08/04 02:58:48;;;;;;;14.47;8.57;;;;;;;23.21;77.88;100090.44;123783;1102;104245;-80
2023/08/04 03:01:19;;;;;;;17.03;8.30;;;;;;;23.18;77.92;100088.70;123654;1102;104328;-81
2023/08/04 03:03:50;;;;;;;15.83;8.17;;;;;;;23.19;77.61;100097.60;123228;1102;104291;-81
2023/08/04 03:06:21;;;;;;;15.10;7.77;;;;;;;23.17;77.80;100095.00;123902;1102;104236;-81
2023/08/04 03:08:52;;;;;;;17.10;8.43;;;;;;;23.18;78.22;100093.19;123547;1102;104313;-81
2023/08/04 03:11:23;;;;;;;14.37;8.23;;;;;;;23.21;78.24;100095.80;123463;1102;104339;-81
2023/08/04 03:13:54;;;;;;;14.83;7.80;;;;;;;23.23;78.14;100092.14;123512;1101;104290;-81
2023/08/04 03:16:25;;;;;;;17.13;8.50;;;;;;;23.20;78.54;100097.56;123795;1102;104334;-81
2023/08/04 03:18:56;;;;;;;15.23;7.80;;;;;;;23.22;78.29;100100.21;123679;1102;105665;-81
2023/08/04 03:21:27;;;;;;;14.00;8.10;;;;;;;23.24;78.31;100101.95;123498;1102;104329;-81
2023/08/04 03:23:59;;;;;;;14.27;8.27;;;;;;;23.27;78.60;100101.01;123797;1102;104418;-82
2023/08/04 03:26:30;;;;;;;16.40;8.60;;;;;;;23.28;78.39;100100.97;123903;1102;104226;-81
2023/08/04 03:29:01;;;;;;;15.17;7.83;;;;;;;23.30;78.50;100100.94;123759;1102;104281;-80
2023/08/04 03:31:32;;;;;;;18.60;8.27;;;;;;;23.32;78.64;100097.29;123831;1102;104335;-81
2023/08/04 03:34:03;;;;;;;13.63;8.03;;;;;;;23.37;78.49;100096.31;123674;1102;104280;-82
2023/08/04 03:36:34;;;;;;;16.90;7.57;;;;;;;23.40;78.32;100091.75;123515;1105;104303;-80
2023/08/04 03:39:05;;;;;;;14.60;8.00;;;;;;;23.41;78.27;100092.66;123561;1102;104242;-80
2023/08/04 03:41:36;;;;;;;14.27;7.50;;;;;;;23.44;78.39;100087.23;123475;1102;104265;-80
2023/08/04 03:44:08;;;;;;;16.70;7.50;;;;;;;23.47;78.53;100092.52;123628;1102;104278;-81
2023/08/04 03:46:39;;;;;;;12.83;7.13;;;;;;;23.50;78.50;100089.77;123825;1102;104239;-83
2023/08/04 03:49:10;;;;;;;12.97;7.37;;;;;;;23.53;77.91;100094.14;123332;1102;104393;-81
2023/08/04 03:51:41;;;;;;;16.17;7.50;;;;;;;23.52;77.78;100093.27;123408;1102;104259;-85
2023/08/04 03:54:12;;;;;;;19.23;7.77;;;;;;;23.54;77.58;100099.46;123593;1102;104197;-82
2023/08/04 03:56:43;;;;;;;13.50;7.73;;;;;;;23.57;77.41;100093.16;123415;1102;104354;-81
2023/08/04 03:59:14;;;;;;;14.03;7.40;;;;;;;23.58;77.74;100094.94;123335;1102;104294;-81
2023/08/04 04:01:45;;;;;;;14.30;7.20;;;;;;;23.60;77.67;100109.16;123368;1102;104357;-81
2023/08/04 04:04:16;;;;;;;16.57;6.83;;;;;;;23.62;77.19;100099.28;123302;1106;104360;-81
2023/08/04 04:06:48;;;;;;;14.40;7.10;;;;;;;23.64;77.32;100105.50;123453;1102;104667;-81
2023/08/04 04:09:19;;;;;;;14.45;7.15;;;;;;;23.66;77.33;100099.16;123375;1102;104274;-81
2023/08/04 04:11:50;;;;;;;17.20;7.30;;;;;;;23.68;77.08;100097.34;123573;1102;104268;-79
2023/08/04 04:14:21;;;;;;;15.93;7.20;;;;;;;23.71;76.89;100099.05;123533;1102;104414;-81
2023/08/04 04:16:52;;;;;;;15.47;7.20;;;;;;;23.75;76.69;100097.16;123450;1102;104329;-79
2023/08/04 04:19:23;;;;;;;13.07;6.67;;;;;;;23.79;76.51;100101.54;123332;1102;104248;-80
2023/08/04 04:21:54;;;;;;;14.15;7.05;;;;;;;23.84;76.02;100100.55;123535;1102;104255;-81
2023/08/04 04:24:25;;;;;;;15.87;6.67;;;;;;;23.93;76.11;100107.45;123487;1102;104252;-80
2023/08/04 04:26:56;;;;;;;15.87;7.10;;;;;;;24.03;76.05;100108.12;123418;1102;104450;-79
2023/08/04 04:29:27;;;;;;;11.53;6.50;;;;;;;24.09;75.70;100110.64;123403;1102;104238;-79
2023/08/04 04:31:59;;;;;;;10.83;6.63;;;;;;;24.14;75.61;100114.06;123303;1102;104277;-78
2023/08/04 04:34:30;;;;;;;11.80;6.35;;;;;;;24.20;75.38;100115.72;123528;1102;104255;-79
2023/08/04 04:37:01;;;;;;;15.60;6.43;;;;;;;24.29;75.34;100115.44;123480;1102;104467;-79
2023/08/04 04:39:33;;;;;;;11.63;6.97;;;;;;;24.35;74.96;100119.77;123653;1105;104223;-79
2023/08/04 04:42:05;;;;;;;12.03;7.00;;;;;;;24.40;74.75;100123.19;123582;1101;104402;-79
2023/08/04 04:44:37;;;;;;;12.15;7.05;;;;;;;24.44;74.84;100118.64;123445;1102;104229;-78
2023/08/04 04:47:09;;;;;;;14.20;6.77;;;;;;;24.46;74.36;100128.38;123631;1102;104274;-79
2023/08/04 04:49:41;;;;;;;11.73;6.55;;;;;;;24.47;74.29;100123.92;123699;1103;104265;-79
2023/08/04 04:52:21;;;;;;;13.03;6.77;;;;;;;24.49;73.91;100124.75;123591;1102;104398;-79
2023/08/04 04:54:52;;;;;;;13.00;6.57;;;;;;;24.54;73.59;100128.17;123758;1102;104239;-79
2023/08/04 04:57:24;;;;;;;13.17;6.87;;;;;;;24.61;73.26;100123.58;123792;1102;104255;-81
2023/08/04 04:59:55;;;;;;;10.83;6.13;;;;;;;24.65;73.13;100122.55;123833;1102;104193;-79
2023/08/04 05:02:26;;;;;;;13.53;6.63;;;;;;;24.68;73.21;100117.99;123884;1102;104191;-77
2023/08/04 05:04:57;;;;;;;10.53;6.50;;;;;;;24.72;72.83;100130.38;124023;1102;104309;-79
2023/08/04 05:07:29;;;;;;;14.60;6.77;;;;;;;24.76;72.35;100126.69;123857;1102;104220;-77
2023/08/04 05:10:00;;;;;;;10.67;6.10;;;;;;;24.79;71.94;100131.06;123893;1102;103328;-80
2023/08/04 05:12:31;;;;;;;12.90;6.33;;;;;;;24.84;71.85;100125.56;124240;1102;102653;-80
2023/08/04 05:15:02;;;;;;;11.33;6.53;;;;;;;24.89;71.47;100131.70;124089;1102;104332;-82
2023/08/04 05:17:35;;;;;;;11.87;6.67;;;;;;;24.99;71.91;100124.25;124110;1102;104335;-82
2023/08/04 05:20:11;;;;;;;10.27;6.10;;;;;;;25.03;71.69;100124.11;124098;1102;104224;-80
2023/08/04 05:22:44;;;;;;;10.40;6.35;;;;;;;25.10;71.25;100122.11;124308;1102;111668;-83
2023/08/04 05:25:17;;;;;;;10.67;6.43;;;;;;;25.17;71.11;100122.83;124315;1102;104291;-80
2023/08/04 05:27:51;;;;;;;12.73;6.73;;;;;;;25.25;70.72;100124.33;124311;1102;104208;-82
2023/08/04 05:30:23;;;;;;;14.27;6.50;;;;;;;25.34;70.76;100123.20;124368;1102;103943;-80
2023/08/04 05:32:55;;;;;;;12.70;6.37;;;;;;;25.41;70.14;100114.02;124249;1103;102348;-80
2023/08/04 05:35:27;;;;;;;11.57;6.33;;;;;;;25.45;70.00;100115.69;124171;1102;104243;-80
2023/08/04 05:37:59;;;;;;;11.63;6.58;;;;;;;25.51;69.98;100119.98;124532;1102;104166;-82
2023/08/04 05:40:35;;;;;;;11.50;6.00;;;;;;;25.58;70.06;100126.03;124344;1106;104287;-82
2023/08/04 05:43:06;;;;;;;10.70;6.30;;;;;;;25.63;70.11;100126.75;124824;1102;102944;-78
2023/08/04 05:45:39;;;;;;;12.73;7.10;;;;;;;25.69;69.78;100129.24;124871;1102;102527;-80
2023/08/04 05:48:11;;;;;;;10.43;6.30;;;;;;;25.76;69.63;100125.44;124957;1102;103094;-83
2023/08/04 05:50:48;;;;;;;13.43;6.50;;;;;;;25.82;69.30;100124.33;125485;1102;104329;-83
2023/08/04 05:53:25;;;;;;;9.60;6.27;;;;;;;25.90;69.20;100126.77;125230;1102;119004;-81
2023/08/04 05:55:58;;;;;;;13.17;6.27;;;;;;;25.95;68.67;100125.69;124653;1105;104118;-86
2023/08/04 05:58:40;;;;;;;10.70;6.30;;;;;;;26.02;68.50;100126.38;124496;1105;104120;-83
2023/08/04 06:01:28;;;;;;;12.90;6.60;;;;;;;26.11;68.58;100127.89;125386;1102;104208;-82
2023/08/04 06:04:08;;;;;;;11.57;6.37;;;;;;;26.20;68.05;100127.58;125378;1106;104303;-85
2023/08/04 06:06:40;;;;;;;9.47;5.90;;;;;;;26.26;67.93;100140.80;125338;1103;104349;-84
2023/08/04 06:09:17;;;;;;;11.30;6.97;;;;;;;26.32;67.80;100131.66;125276;1106;102500;-77
2023/08/04 06:11:57;;;;;;;11.27;6.90;;;;;;;26.36;67.78;100131.46;125331;1102;104313;-79
2023/08/04 06:14:59;;;;;;;11.30;6.17;;;;;;;26.45;67.54;100130.27;125236;1102;102291;-80
2023/08/04 06:17:53;;;;;;;10.30;6.57;;;;;;;26.52;67.54;100134.50;125469;1106;103244;-81
2023/08/04 06:20:53;;;;;;;13.00;6.70;;;;;;;26.58;66.80;100127.12;125464;1103;102399;-82
2023/08/04 06:23:30;;;;;;;12.07;6.93;;;;;;;26.66;66.44;100128.66;125384;1102;102491;-81
2023/08/04 06:26:05;;;;;;;11.87;6.40;;;;;;;26.72;65.82;100132.91;125610;1102;104293;-86
2023/08/04 06:29:03;;;;;;;14.40;6.40;;;;;;;26.80;65.65;100129.94;125540;1102;102168;-80
2023/08/04 06:31:49;;;;;;;10.13;6.53;;;;;;;26.90;65.49;100132.22;125540;1102;103247;-83
2023/08/04 06:34:35;;;;;;;10.30;6.17;;;;;;;27.00;65.33;100135.44;125198;1105;118958;-81
2023/08/04 06:37:23;;;;;;;12.97;6.67;;;;;;;27.11;64.73;100136.85;125264;1102;104267;-79
2023/08/04 06:40:11;;;;;;;9.57;6.10;;;;;;;27.20;64.62;100134.67;124774;1102;102660;-78
2023/08/04 06:42:55;;;;;;;12.17;6.47;;;;;;;27.34;63.87;100131.47;125298;1102;102363;-79
2023/08/04 06:45:36;;;;;;;11.13;6.03;;;;;;;27.45;64.36;100128.34;124847;1102;103437;-80
2023/08/04 06:48:08;;;;;;;11.73;6.27;;;;;;;27.58;63.69;100129.62;125834;1104;103215;-79
2023/08/04 06:50:41;;;;;;;11.93;6.10;;;;;;;27.69;63.47;100125.58;126055;1101;102781;-79
2023/08/04 06:53:15;;;;;;;10.23;6.23;;;;;;;27.81;62.82;100135.86;125221;1103;102146;-80
2023/08/04 06:55:47;;;;;;;15.20;6.03;;;;;;;27.96;62.44;100134.39;125320;1103;102002;-80
2023/08/04 06:58:43;;;;;;;10.95;6.50;;;;;;;28.09;62.27;100135.59;124652;1102;104223;-79
2023/08/04 07:01:31;;;;;;;12.53;6.40;;;;;;;28.23;61.22;100143.09;125610;1102;104213;-80
2023/08/04 07:04:12;;;;;;;11.30;6.40;;;;;;;28.37;60.94;100152.42;124865;1102;102610;-79
2023/08/04 07:06:59;;;;;;;10.57;6.80;;;;;;;28.51;60.86;100147.29;124773;1102;102647;-79
2023/08/04 07:09:32;;;;;;;15.60;6.63;;;;;;;28.69;60.55;100153.73;124935;1102;103618;-80
2023/08/04 07:12:15;;;;;;;9.97;6.47;;;;;;;28.84;59.88;100154.84;125065;1102;103320;-83
2023/08/04 07:15:03;;;;;;;10.27;6.37;;;;;;;28.97;59.89;100152.48;125929;1102;102001;-81
2023/08/04 07:17:41;;;;;;;12.53;6.20;;;;;;;29.09;59.40;100148.31;125968;1102;102684;-80
2023/08/04 07:20:21;;;;;;;11.07;6.73;;;;;;;29.28;59.05;100156.45;125999;1102;102706;-80
2023/08/04 07:22:57;;;;;;;12.97;6.77;;;;;;;29.43;58.70;100144.04;125953;1102;102165;-81
2023/08/04 07:25:30;;;;;;;12.50;6.00;;;;;;;29.58;58.72;100141.45;126105;1101;102553;-82
2023/08/04 07:28:03;;;;;;;11.87;6.40;;;;;;;29.79;57.62;100133.22;124755;1105;103202;-83
2023/08/04 07:30:38;;;;;;;11.15;6.58;;;;;;;29.97;57.37;100136.88;124767;1105;103179;-81
2023/08/04 07:33:11;;;;;;;13.83;6.17;;;;;;;30.15;57.58;100144.99;126171;1102;102653;-81
2023/08/04 07:35:42;;;;;;;8.83;6.13;;;;;;;30.34;57.29;100142.20;125901;1102;102002;-80
2023/08/04 07:38:20;;;;;;;14.15;6.45;;;;;;;30.54;56.69;100144.80;126301;1101;102404;-80
2023/08/04 07:40:57;;;;;;;11.30;6.30;;;;;;;30.72;55.99;100145.62;126129;1102;104023;-81
2023/08/04 07:43:32;;;;;;;9.97;6.20;;;;;;;30.86;55.24;100147.58;126089;1102;102632;-80
2023/08/04 07:46:06;;;;;;;;;;;;;;;31.07;54.36;100153.70;125957;1102;102354;-82
2023/08/04 07:48:51;;;;;;;10.30;5.97;;;;;;;31.28;54.13;100158.87;125879;1102;102107;-81
2023/08/04 07:51:35;;;;;;;9.13;6.12;;;;;;;31.41;53.25;100148.21;126144;1102;102532;-79
2023/08/04 07:54:12;;;;;;;10.33;6.00;;;;;;;31.50;53.66;100153.11;125873;1102;103694;-80
2023/08/04 07:56:56;;;;;;;9.97;5.77;;;;;;;31.68;53.06;100159.33;126183;1102;102714;-80
2023/08/04 07:59:39;;;;;;;11.23;6.20;;;;;;;31.82;52.08;100162.14;126255;1101;102876;-81
2023/08/04 08:02:17;;;;;;;9.90;6.07;;;;;;;31.94;52.04;100149.67;125596;1102;104162;-80
2023/08/04 08:04:56;;;;;;;11.10;6.00;;;;;;;32.08;51.00;100159.70;124663;1102;104385;-79
2023/08/04 08:07:31;;;;;;;10.10;6.13;;;;;;;32.18;50.64;100158.23;125393;1102;104230;-79
2023/08/04 08:10:17;;;;;;;11.43;6.20;;;;;;;32.26;50.55;100160.49;124516;1102;102450;-78
2023/08/04 08:12:48;;;;;;;11.43;6.27;;;;;;;32.35;50.24;100164.47;126201;1102;101692;-78
2023/08/04 08:15:21;;;;;;;8.87;6.00;;;;;;;32.52;49.67;100158.02;125519;1102;104303;-80
2023/08/04 08:17:53;;;;;;;9.67;5.73;;;;;;;32.72;49.00;100154.10;124509;1102;103067;-77
2023/08/04 08:20:25;;;;;;;9.37;5.93;;;;;;;32.82;48.63;100165.25;124206;1102;102836;-77
2023/08/04 08:23:02;;;;;;;9.45;6.00;;;;;;;32.88;48.67;100160.33;124412;1102;104045;-77
2023/08/04 08:25:37;;;;;;;10.20;6.17;;;;;;;32.94;48.11;100157.23;124455;1102;104176;-80
2023/08/04 08:28:08;;;;;;;9.70;5.87;;;;;;;32.96;47.77;100152.56;124660;1102;102549;-80
2023/08/04 08:30:42;;;;;;;7.47;5.87;;;;;;;33.00;47.85;100155.95;124501;1102;102578;-77
2023/08/04 08:33:15;;;;;;;11.00;5.80;;;;;;;33.13;47.80;100158.78;124648;1101;104639;-80
2023/08/04 08:35:54;;;;;;;11.83;6.50;;;;;;;33.16;47.48;100158.58;124713;1102;104208;-81
2023/08/04 08:38:26;;;;;;;8.47;5.77;;;;;;;33.22;47.05;100158.19;124919;1101;104198;-79
2023/08/04 08:41:11;;;;;;;8.23;5.63;;;;;;;33.33;46.82;100152.06;124500;1102;102771;-80
2023/08/04 08:43:49;;;;;;;10.27;5.77;;;;;;;33.44;46.13;100145.92;124833;1102;104689;-83
2023/08/04 08:46:22;;;;;;;8.23;5.43;;;;;;;33.54;46.15;100151.65;124739;1102;104195;-82
2023/08/04 08:49:04;;;;;;;10.20;5.95;;;;;;;33.48;46.01;100148.34;124539;1102;103352;-79
2023/08/04 08:51:43;;;;;;;8.43;5.80;;;;;;;33.52;45.78;100150.86;124590;1102;104194;-80
2023/08/04 08:54:17;;;;;;;7.90;5.27;;;;;;;33.58;45.28;100150.45;124463;1102;104227;-81
2023/08/04 08:56:51;;;;;;;9.53;6.00;;;;;;;33.67;45.11;100150.73;126369;1102;101909;-78
2023/08/04 08:59:37;;;;;;;10.77;5.83;;;;;;;33.82;44.83;100157.02;125532;1102;101922;-79
2023/08/04 09:02:19;;;;;;;8.30;5.67;;;;;;;33.89;44.28;100152.02;124730;1102;104428;-83
2023/08/04 09:05:05;;;;;;;7.73;5.47;;;;;;;33.97;44.04;100151.50;124761;1102;104389;-79
2023/08/04 09:07:48;;;;;;;10.97;5.93;;;;;;;33.99;43.52;100152.30;124508;1102;104229;-81
2023/08/04 09:10:44;;;;;;;13.30;5.70;;;;;;;34.01;43.64;100151.20;124706;1102;102435;-80
2023/08/04 09:13:16;;;;;;;8.50;5.57;;;;;;;34.04;43.38;100159.15;124497;1102;104246;-81
2023/08/04 09:15:52;;;;;;;10.13;5.97;;;;;;;34.17;43.11;100161.93;124569;1102;104207;-83
2023/08/04 09:18:32;;;;;;;9.77;6.40;;;;;;;34.27;42.45;100155.86;124821;1102;102828;-82
2023/08/04 09:21:13;;;;;;;9.63;5.60;;;;;;;34.18;42.06;100160.93;124854;1102;102884;-82
2023/08/04 09:23:55;;;;;;;11.33;5.70;;;;;;;34.14;42.00;100155.80;125081;1102;104172;-82
2023/08/04 09:26:28;;;;;;;15.03;5.77;;;;;;;34.33;41.78;100155.43;124482;1100;103682;-79
2023/08/04 09:29:09;;;;;;;8.90;5.70;;;;;;;34.45;41.13;100151.86;124902;1102;102732;-76
2023/08/04 09:31:41;;;;;;;8.80;5.57;;;;;;;34.51;41.15;100159.60;124856;1101;104169;-79
2023/08/04 09:34:14;;;;;;;8.48;5.17;;;;;;;34.53;41.11;100157.66;124903;1102;102420;-80
2023/08/04 09:36:45;;;;;;;;;;;;;;;34.63;41.29;100152.43;125320;1102;103273;-78
2023/08/04 09:39:20;;;;;;;8.80;5.43;;;;;;;34.75;40.72;100161.63;125244;1102;104217;-81
2023/08/04 09:41:52;;;;;;;8.53;5.47;;;;;;;34.82;40.48;100153.88;125262;1102;103611;-78
2023/08/04 09:44:39;;;;;;;11.70;5.37;;;;;;;34.67;40.64;100153.97;125571;1101;102157;-77
2023/08/04 09:47:12;;;;;;;8.97;5.30;;;;;;;34.71;40.07;100155.47;125260;1102;104229;-79
2023/08/04 09:49:43;;;;;;;8.37;5.50;;;;;;;34.86;39.77;100152.66;124773;1102;104201;-79
2023/08/04 09:52:22;;;;;;;8.37;5.37;;;;;;;34.89;39.57;100157.89;124530;1102;104298;-79
2023/08/04 09:54:55;;;;;;;10.37;5.90;;;;;;;34.98;39.67;100156.37;124169;1102;104225;-81
2023/08/04 09:57:27;;;;;;;8.73;5.67;;;;;;;35.00;39.28;100149.84;124574;1102;104189;-81
2023/08/04 09:59:59;;;;;;;7.25;5.65;;;;;;;35.03;39.18;100154.17;126103;1102;102559;-81
2023/08/04 10:02:33;;;;;;;17.33;5.83;;;;;;;35.22;39.31;100159.18;126066;1101;101913;-80
2023/08/04 10:05:08;;;;;;;12.77;5.53;;;;;;;35.35;39.31;100154.58;126089;1102;102503;-80
2023/08/04 10:07:41;;;;;;;9.60;5.73;;;;;;;35.34;38.88;100151.97;126048;1101;102797;-81
2023/08/04 10:10:13;;;;;;;8.10;5.23;;;;;;;35.29;38.50;100155.03;117241;1102;10002150;-81
2023/08/04 10:12:45;;;;;;;10.82;5.62;;;;;;;35.31;38.54;100147.59;125910;1103;102202;-82
2023/08/04 10:15:26;;;;;;;9.70;5.90;;;;;;;35.34;38.52;100152.83;125599;1102;102087;-83
2023/08/04 10:18:03;;;;;;;9.60;5.50;;;;;;;35.37;38.44;100141.69;124845;1102;104161;-78
2023/08/04 10:20:43;;;;;;;8.50;5.35;;;;;;;35.40;38.08;100152.37;124907;1102;102507;-81
2023/08/04 10:23:19;;;;;;;10.43;5.53;;;;;;;35.50;37.70;100147.12;124662;1102;104351;-83
2023/08/04 10:26:02;;;;;;;9.53;5.30;;;;;;;35.56;37.66;100146.67;126236;1101;102337;-80
2023/08/04 10:28:57;;;;;;;8.20;5.50;;;;;;;35.56;37.82;100146.67;125942;1102;103821;-80
2023/08/04 10:31:45;;;;;;;8.70;5.30;;;;;;;35.56;37.39;100140.33;126329;1102;102779;-81
2023/08/04 10:34:28;;;;;;;12.07;5.63;;;;;;;35.55;37.56;100141.33;125933;1103;101618;-80
2023/08/04 10:37:15;;;;;;;10.40;6.40;;;;;;;35.61;37.43;100149.06;126243;1101;102748;-83
2023/08/04 10:40:02;;;;;;;9.80;5.53;;;;;;;35.64;36.84;100146.96;126177;1102;102372;-83
2023/08/04 10:43:04;;;;;;;9.63;5.70;;;;;;;35.68;36.98;100141.27;126111;1101;102757;-79
2023/08/04 10:46:13;;;;;;;8.40;5.27;;;;;;;35.67;37.12;100147.70;126348;1101;101907;-80
2023/08/04 10:49:24;;;;;;;9.27;5.20;;;;;;;35.66;36.51;100140.53;125457;1106;102049;-79
2023/08/04 10:51:56;;;;;;;7.50;5.83;;;;;;;35.63;36.32;100142.48;124736;1102;104169;-79
2023/08/04 10:54:31;;;;;;;9.57;5.57;;;;;;;35.57;36.20;100142.08;124680;1102;102166;-79
2023/08/04 10:57:06;;;;;;;8.03;5.40;;;;;;;35.53;36.68;100135.09;124796;1102;102779;-79
2023/08/04 11:00:14;;;;;;;7.57;5.07;;;;;;;35.61;36.44;100133.55;125347;1102;102899;-79
2023/08/04 11:02:47;;;;;;;6.40;5.17;;;;;;;35.72;36.55;100132.73;125952;1103;102443;-81
2023/08/04 11:05:24;;;;;;;8.87;5.57;;;;;;;35.79;35.83;100134.06;125826;1102;102093;-78
2023/08/04 11:08:04;;;;;;;9.40;5.87;;;;;;;35.83;35.56;100139.25;124832;1102;103468;-79
2023/08/04 11:10:36;;;;;;;9.10;5.57;;;;;;;35.83;35.78;100129.23;124944;1102;104181;-81
2023/08/04 11:13:09;;;;;;;12.88;5.90;;;;;;;35.86;35.56;100129.00;125317;1102;104245;-80
2023/08/04 11:18:29;;;;;;;10.50;5.60;;;;;;;35.72;35.69;100129.15;125581;1101;102116;-83
2023/08/04 11:21:09;;;;;;;8.80;5.20;;;;;;;35.66;35.64;100127.75;125066;1102;103261;-80
2023/08/04 11:23:40;;;;;;;8.47;5.10;;;;;;;35.63;35.62;100125.25;124711;1102;104264;-79
2023/08/04 11:26:25;;;;;;;10.87;5.90;;;;;;;35.65;35.44;100123.27;124447;1105;104168;-83
2023/08/04 11:29:01;;;;;;;8.73;5.50;;;;;;;35.71;35.48;100122.80;124494;1102;103811;-85
2023/08/04 11:31:35;;;;;;;10.97;5.53;;;;;;;35.76;35.23;100117.92;125366;1102;104379;-80
2023/08/04 11:34:14;;;;;;;8.67;5.47;;;;;;;35.83;35.35;100125.61;124946;1102;104227;-78
2023/08/04 11:36:52;;;;;;;8.93;5.77;;;;;;;35.89;35.28;100119.68;125289;1103;103228;-79
2023/08/04 11:39:28;;;;;;;8.50;5.20;;;;;;;35.74;35.15;100119.84;124736;1102;102892;-80
2023/08/04 11:42:00;;;;;;;7.80;5.60;;;;;;;35.70;35.19;100118.35;124889;1102;104251;-82
2023/08/04 11:44:33;;;;;;;10.23;5.08;;;;;;;35.62;35.07;100123.49;124562;1102;104287;-80